sensor_id;sensor_type;location;lat;lon;timestamp;temperature;humidity
53422;DHT22;39319;52.944;5.928;2024-03-23T00:55:44;9.30;98.40
53422;DHT22;39319;52.944;5.928;2024-03-23T00:58:10;9.40;98.50
53422;DHT22;39319;52.944;5.928;2024-03-23T01:00:35;9.30;98.60
53422;DHT22;39319;52.944;5.928;2024-03-23T01:03:01;9.20;98.60
53422;DHT22;39319;52.944;5.928;2024-03-23T01:05:27;9.30;98.60
53422;DHT22;39319;52.944;5.928;2024-03-23T01:07:53;9.30;98.60
53422;DHT22;39319;52.944;5.928;2024-03-23T01:10:18;9.50;98.60
53422;DHT22;39319;52.944;5.928;2024-03-23T01:12:44;9.30;98.60
53422;DHT22;39319;52.944;5.928;2024-03-23T01:15:10;9.20;98.50
53422;DHT22;39319;52.944;5.928;2024-03-23T01:17:35;9.30;98.40
53422;DHT22;39319;52.944;5.928;2024-03-23T01:20:01;9.20;98.30
53422;DHT22;39319;52.944;5.928;2024-03-23T01:22:27;9.30;98.40
53422;DHT22;39319;52.944;5.928;2024-03-23T01:24:53;9.30;98.40
53422;DHT22;39319;52.944;5.928;2024-03-23T01:27:18;9.30;98.40
53422;DHT22;39319;52.944;5.928;2024-03-23T01:29:44;9.20;98.40
53422;DHT22;39319;52.944;5.928;2024-03-23T01:32:10;9.20;98.40
53422;DHT22;39319;52.944;5.928;2024-03-23T01:34:36;9.30;98.40
53422;DHT22;39319;52.944;5.928;2024-03-23T01:37:02;9.30;98.40
53422;DHT22;39319;52.944;5.928;2024-03-23T01:39:27;9.20;98.60
53422;DHT22;39319;52.944;5.928;2024-03-23T01:41:53;9.20;98.30
53422;DHT22;39319;52.944;5.928;2024-03-23T01:44:19;9.30;98.30
53422;DHT22;39319;52.944;5.928;2024-03-23T01:46:44;9.20;98.30
53422;DHT22;39319;52.944;5.928;2024-03-23T01:49:10;9.20;98.30
53422;DHT22;39319;52.944;5.928;2024-03-23T01:51:37;9.20;98.30
53422;DHT22;39319;52.944;5.928;2024-03-23T01:54:03;9.20;98.30
53422;DHT22;39319;52.944;5.928;2024-03-23T01:56:38;10.00;98.40
53422;DHT22;39319;52.944;5.928;2024-03-23T01:59:05;9.20;98.20
53422;DHT22;39319;52.944;5.928;2024-03-23T02:01:31;9.10;98.20
53422;DHT22;39319;52.944;5.928;2024-03-23T02:03:57;9.10;98.20
53422;DHT22;39319;52.944;5.928;2024-03-23T02:06:24;9.10;98.20
53422;DHT22;39319;52.944;5.928;2024-03-23T02:08:50;9.20;98.20
53422;DHT22;39319;52.944;5.928;2024-03-23T02:11:15;9.10;98.20
53422;DHT22;39319;52.944;5.928;2024-03-23T02:13:41;9.00;98.20
53422;DHT22;39319;52.944;5.928;2024-03-23T02:16:07;9.00;98.20
53422;DHT22;39319;52.944;5.928;2024-03-23T02:18:33;8.90;98.20
53422;DHT22;39319;52.944;5.928;2024-03-23T02:20:59;9.00;98.10
53422;DHT22;39319;52.944;5.928;2024-03-23T02:23:24;8.90;98.10
53422;DHT22;39319;52.944;5.928;2024-03-23T02:25:50;8.90;98.10
53422;DHT22;39319;52.944;5.928;2024-03-23T02:28:16;9.10;98.10
53422;DHT22;39319;52.944;5.928;2024-03-23T02:30:43;8.90;98.00
53422;DHT22;39319;52.944;5.928;2024-03-23T02:33:09;8.90;97.90
53422;DHT22;39319;52.944;5.928;2024-03-23T02:35:34;8.80;97.90
53422;DHT22;39319;52.944;5.928;2024-03-23T02:38:00;8.80;97.90
53422;DHT22;39319;52.944;5.928;2024-03-23T02:40:28;8.80;98.00
53422;DHT22;39319;52.944;5.928;2024-03-23T02:42:54;8.80;98.00
53422;DHT22;39319;52.944;5.928;2024-03-23T02:45:20;8.90;98.10
53422;DHT22;39319;52.944;5.928;2024-03-23T02:47:46;8.70;97.90
53422;DHT22;39319;52.944;5.928;2024-03-23T02:50:12;8.70;97.90
53422;DHT22;39319;52.944;5.928;2024-03-23T02:52:38;8.60;97.90
53422;DHT22;39319;52.944;5.928;2024-03-23T02:55:04;8.80;98.00
53422;DHT22;39319;52.944;5.928;2024-03-23T02:57:30;8.70;98.00
53422;DHT22;39319;52.944;5.928;2024-03-23T02:59:56;8.50;98.10
53422;DHT22;39319;52.944;5.928;2024-03-23T03:02:22;8.60;98.10
53422;DHT22;39319;52.944;5.928;2024-03-23T03:04:47;8.90;98.20
53422;DHT22;39319;52.944;5.928;2024-03-23T03:07:15;8.60;98.10
53422;DHT22;39319;52.944;5.928;2024-03-23T03:09:41;8.50;97.90
53422;DHT22;39319;52.944;5.928;2024-03-23T03:12:07;8.50;98.00
53422;DHT22;39319;52.944;5.928;2024-03-23T03:14:33;8.50;98.10
53422;DHT22;39319;52.944;5.928;2024-03-23T03:16:59;8.40;98.10
53422;DHT22;39319;52.944;5.928;2024-03-23T03:19:25;8.50;98.10
53422;DHT22;39319;52.944;5.928;2024-03-23T03:21:51;8.40;98.10
53422;DHT22;39319;52.944;5.928;2024-03-23T03:24:17;8.50;98.10
53422;DHT22;39319;52.944;5.928;2024-03-23T03:26:43;8.40;98.10
53422;DHT22;39319;52.944;5.928;2024-03-23T03:29:09;8.40;98.00
53422;DHT22;39319;52.944;5.928;2024-03-23T03:31:34;8.40;98.20
53422;DHT22;39319;52.944;5.928;2024-03-23T03:34:00;8.40;98.00
53422;DHT22;39319;52.944;5.928;2024-03-23T03:36:26;8.40;98.00
53422;DHT22;39319;52.944;5.928;2024-03-23T03:38:52;9.20;98.20
53422;DHT22;39319;52.944;5.928;2024-03-23T03:41:18;8.40;98.00
53422;DHT22;39319;52.944;5.928;2024-03-23T03:43:44;8.40;98.00
53422;DHT22;39319;52.944;5.928;2024-03-23T03:46:10;8.50;98.10
53422;DHT22;39319;52.944;5.928;2024-03-23T03:48:37;8.50;97.90
53422;DHT22;39319;52.944;5.928;2024-03-23T03:51:03;8.50;97.90
53422;DHT22;39319;52.944;5.928;2024-03-23T03:53:29;8.30;97.90
53422;DHT22;39319;52.944;5.928;2024-03-23T03:55:55;8.40;97.90
53422;DHT22;39319;52.944;5.928;2024-03-23T03:58:21;8.40;97.90
53422;DHT22;39319;52.944;5.928;2024-03-23T04:00:47;8.40;97.90
53422;DHT22;39319;52.944;5.928;2024-03-23T04:03:13;8.30;97.80
53422;DHT22;39319;52.944;5.928;2024-03-23T04:05:38;8.30;97.80
53422;DHT22;39319;52.944;5.928;2024-03-23T04:08:05;8.30;97.90
53422;DHT22;39319;52.944;5.928;2024-03-23T04:10:31;8.30;97.80
53422;DHT22;39319;52.944;5.928;2024-03-23T04:12:57;8.30;97.80
53422;DHT22;39319;52.944;5.928;2024-03-23T04:15:22;8.70;97.90
53422;DHT22;39319;52.944;5.928;2024-03-23T04:17:48;8.20;97.90
53422;DHT22;39319;52.944;5.928;2024-03-23T04:20:14;8.20;97.90
53422;DHT22;39319;52.944;5.928;2024-03-23T04:22:43;8.20;97.90
53422;DHT22;39319;52.944;5.928;2024-03-23T04:25:08;8.20;97.90
53422;DHT22;39319;52.944;5.928;2024-03-23T04:27:39;8.10;97.80
53422;DHT22;39319;52.944;5.928;2024-03-23T04:30:05;8.10;97.90
53422;DHT22;39319;52.944;5.928;2024-03-23T04:32:36;8.20;98.00
53422;DHT22;39319;52.944;5.928;2024-03-23T04:35:02;8.20;97.90
53422;DHT22;39319;52.944;5.928;2024-03-23T04:37:34;8.20;97.90
53422;DHT22;39319;52.944;5.928;2024-03-23T04:40:04;8.20;97.90
53422;DHT22;39319;52.944;5.928;2024-03-23T04:42:30;8.20;98.00
53422;DHT22;39319;52.944;5.928;2024-03-23T04:44:56;8.10;97.90
53422;DHT22;39319;52.944;5.928;2024-03-23T04:47:22;8.10;97.80
53422;DHT22;39319;52.944;5.928;2024-03-23T04:49:48;8.10;97.80
53422;DHT22;39319;52.944;5.928;2024-03-23T04:52:14;8.20;97.80
53422;DHT22;39319;52.944;5.928;2024-03-23T04:54:39;8.10;97.80
53422;DHT22;39319;52.944;5.928;2024-03-23T04:57:08;8.10;97.80
53422;DHT22;39319;52.944;5.928;2024-03-23T04:59:33;8.10;97.70
53422;DHT22;39319;52.944;5.928;2024-03-23T05:01:59;8.00;97.60
53422;DHT22;39319;52.944;5.928;2024-03-23T05:04:26;8.10;97.80
53422;DHT22;39319;52.944;5.928;2024-03-23T05:06:51;8.00;97.70
53422;DHT22;39319;52.944;5.928;2024-03-23T05:09:17;8.00;97.80
53422;DHT22;39319;52.944;5.928;2024-03-23T05:11:43;8.00;97.90
53422;DHT22;39319;52.944;5.928;2024-03-23T05:14:08;8.40;98.10
53422;DHT22;39319;52.944;5.928;2024-03-23T05:16:37;8.10;98.10
53422;DHT22;39319;52.944;5.928;2024-03-23T05:19:02;8.10;98.20
53422;DHT22;39319;52.944;5.928;2024-03-23T05:21:28;8.10;98.10
53422;DHT22;39319;52.944;5.928;2024-03-23T05:23:54;8.10;98.30
53422;DHT22;39319;52.944;5.928;2024-03-23T05:26:21;8.30;98.50
53422;DHT22;39319;52.944;5.928;2024-03-23T05:28:47;8.20;98.50
53422;DHT22;39319;52.944;5.928;2024-03-23T05:31:22;8.20;98.90
53422;DHT22;39319;52.944;5.928;2024-03-23T05:33:47;8.50;98.50
53422;DHT22;39319;52.944;5.928;2024-03-23T05:36:16;9.20;98.80
53422;DHT22;39319;52.944;5.928;2024-03-23T05:38:42;9.10;98.60
53422;DHT22;39319;52.944;5.928;2024-03-23T05:41:08;8.40;98.20
53422;DHT22;39319;52.944;5.928;2024-03-23T05:43:34;8.30;98.30
53422;DHT22;39319;52.944;5.928;2024-03-23T05:46:01;8.30;98.40
53422;DHT22;39319;52.944;5.928;2024-03-23T05:48:33;8.30;98.50
53422;DHT22;39319;52.944;5.928;2024-03-23T05:50:59;8.20;98.60
53422;DHT22;39319;52.944;5.928;2024-03-23T05:53:24;8.20;98.50
53422;DHT22;39319;52.944;5.928;2024-03-23T05:55:51;9.20;98.30
53422;DHT22;39319;52.944;5.928;2024-03-23T05:58:19;8.20;98.20
53422;DHT22;39319;52.944;5.928;2024-03-23T06:00:45;8.10;98.20
53422;DHT22;39319;52.944;5.928;2024-03-23T06:03:11;8.20;98.40
53422;DHT22;39319;52.944;5.928;2024-03-23T06:05:38;8.10;98.30
53422;DHT22;39319;52.944;5.928;2024-03-23T06:08:04;8.10;98.30
53422;DHT22;39319;52.944;5.928;2024-03-23T06:10:32;8.10;98.20
53422;DHT22;39319;52.944;5.928;2024-03-23T06:12:58;8.10;98.30
53422;DHT22;39319;52.944;5.928;2024-03-23T06:15:24;8.10;98.20
53422;DHT22;39319;52.944;5.928;2024-03-23T06:17:50;8.20;98.20
53422;DHT22;39319;52.944;5.928;2024-03-23T06:20:16;8.20;98.30
53422;DHT22;39319;52.944;5.928;2024-03-23T06:22:42;8.20;98.30
53422;DHT22;39319;52.944;5.928;2024-03-23T06:25:08;8.10;98.40
53422;DHT22;39319;52.944;5.928;2024-03-23T06:27:33;8.10;98.40
53422;DHT22;39319;52.944;5.928;2024-03-23T06:30:00;8.60;98.70
53422;DHT22;39319;52.944;5.928;2024-03-23T06:32:25;8.10;98.50
53422;DHT22;39319;52.944;5.928;2024-03-23T06:34:51;8.10;98.60
53422;DHT22;39319;52.944;5.928;2024-03-23T06:37:17;8.40;98.70
53422;DHT22;39319;52.944;5.928;2024-03-23T06:39:45;8.40;98.80
53422;DHT22;39319;52.944;5.928;2024-03-23T06:42:11;8.40;98.80
53422;DHT22;39319;52.944;5.928;2024-03-23T06:44:37;8.40;99.00
53422;DHT22;39319;52.944;5.928;2024-03-23T06:47:02;8.40;99.10
53422;DHT22;39319;52.944;5.928;2024-03-23T06:49:28;8.60;98.90
53422;DHT22;39319;52.944;5.928;2024-03-23T06:51:54;8.60;99.00
53422;DHT22;39319;52.944;5.928;2024-03-23T06:54:19;8.60;98.80
53422;DHT22;39319;52.944;5.928;2024-03-23T06:56:45;9.10;98.80
53422;DHT22;39319;52.944;5.928;2024-03-23T06:59:11;8.70;98.60
53422;DHT22;39319;52.944;5.928;2024-03-23T07:01:37;8.70;98.40
53422;DHT22;39319;52.944;5.928;2024-03-23T07:04:03;8.70;98.40
53422;DHT22;39319;52.944;5.928;2024-03-23T07:06:30;8.60;97.50
53422;DHT22;39319;52.944;5.928;2024-03-23T07:08:56;8.50;97.60
53422;DHT22;39319;52.944;5.928;2024-03-23T07:11:22;8.40;97.70
53422;DHT22;39319;52.944;5.928;2024-03-23T07:13:52;8.40;97.60
53422;DHT22;39319;52.944;5.928;2024-03-23T07:16:18;8.30;97.50
53422;DHT22;39319;52.944;5.928;2024-03-23T07:18:43;8.20;97.40
53422;DHT22;39319;52.944;5.928;2024-03-23T07:21:09;8.10;97.30
53422;DHT22;39319;52.944;5.928;2024-03-23T07:23:35;8.20;97.30
53422;DHT22;39319;52.944;5.928;2024-03-23T07:26:03;8.20;97.40
53422;DHT22;39319;52.944;5.928;2024-03-23T07:28:32;8.00;97.40
53422;DHT22;39319;52.944;5.928;2024-03-23T07:33:32;8.00;97.50
53422;DHT22;39319;52.944;5.928;2024-03-23T07:35:57;8.50;97.80
53422;DHT22;39319;52.944;5.928;2024-03-23T07:38:27;7.90;98.00
53422;DHT22;39319;52.944;5.928;2024-03-23T07:41:08;8.00;97.90
53422;DHT22;39319;52.944;5.928;2024-03-23T07:43:35;8.00;98.20
53422;DHT22;39319;52.944;5.928;2024-03-23T07:46:04;8.00;98.40
53422;DHT22;39319;52.944;5.928;2024-03-23T07:48:30;8.00;98.40
53422;DHT22;39319;52.944;5.928;2024-03-23T07:53:27;8.00;98.60
53422;DHT22;39319;52.944;5.928;2024-03-23T07:55:57;8.20;98.70
53422;DHT22;39319;52.944;5.928;2024-03-23T07:58:24;8.20;98.80
53422;DHT22;39319;52.944;5.928;2024-03-23T08:00:50;8.20;98.90
53422;DHT22;39319;52.944;5.928;2024-03-23T08:03:15;8.30;98.80
53422;DHT22;39319;52.944;5.928;2024-03-23T08:05:41;8.60;98.70
53422;DHT22;39319;52.944;5.928;2024-03-23T08:08:07;8.50;98.50
53422;DHT22;39319;52.944;5.928;2024-03-23T08:10:33;8.50;98.70
53422;DHT22;39319;52.944;5.928;2024-03-23T08:12:59;8.60;99.10
53422;DHT22;39319;52.944;5.928;2024-03-23T08:15:25;8.70;98.60
53422;DHT22;39319;52.944;5.928;2024-03-23T08:17:51;8.70;98.50
53422;DHT22;39319;52.944;5.928;2024-03-23T08:20:17;8.90;98.50
53422;DHT22;39319;52.944;5.928;2024-03-23T08:22:42;8.90;98.20
53422;DHT22;39319;52.944;5.928;2024-03-23T08:25:08;9.10;98.20
53422;DHT22;39319;52.944;5.928;2024-03-23T08:27:34;9.20;98.00
53422;DHT22;39319;52.944;5.928;2024-03-23T08:30:02;9.20;98.00
53422;DHT22;39319;52.944;5.928;2024-03-23T08:32:28;10.10;97.80
53422;DHT22;39319;52.944;5.928;2024-03-23T08:34:53;9.40;96.70
53422;DHT22;39319;52.944;5.928;2024-03-23T08:37:19;10.30;97.20
53422;DHT22;39319;52.944;5.928;2024-03-23T08:39:45;9.40;97.40
53422;DHT22;39319;52.944;5.928;2024-03-23T08:42:10;9.50;96.80
53422;DHT22;39319;52.944;5.928;2024-03-23T08:44:36;9.60;96.90
53422;DHT22;39319;52.944;5.928;2024-03-23T08:47:02;9.50;96.50
53422;DHT22;39319;52.944;5.928;2024-03-23T08:49:27;9.60;96.00
53422;DHT22;39319;52.944;5.928;2024-03-23T08:51:53;9.40;96.00
53422;DHT22;39319;52.944;5.928;2024-03-23T08:54:20;9.60;95.90
53422;DHT22;39319;52.944;5.928;2024-03-23T08:56:47;9.70;95.60
53422;DHT22;39319;52.944;5.928;2024-03-23T08:59:13;9.70;95.90
53422;DHT22;39319;52.944;5.928;2024-03-23T09:01:39;9.70;95.70
53422;DHT22;39319;52.944;5.928;2024-03-23T09:04:04;9.80;95.70
53422;DHT22;39319;52.944;5.928;2024-03-23T09:06:30;9.80;95.70
53422;DHT22;39319;52.944;5.928;2024-03-23T09:08:56;10.00;95.30
53422;DHT22;39319;52.944;5.928;2024-03-23T09:11:22;9.90;96.00
53422;DHT22;39319;52.944;5.928;2024-03-23T09:13:47;10.00;95.80
53422;DHT22;39319;52.944;5.928;2024-03-23T09:16:13;9.90;95.30
53422;DHT22;39319;52.944;5.928;2024-03-23T09:18:39;10.00;95.10
53422;DHT22;39319;52.944;5.928;2024-03-23T09:21:11;9.80;95.00
53422;DHT22;39319;52.944;5.928;2024-03-23T09:23:37;9.90;95.00
53422;DHT22;39319;52.944;5.928;2024-03-23T09:26:03;10.80;95.30
53422;DHT22;39319;52.944;5.928;2024-03-23T09:28:29;10.10;95.10
53422;DHT22;39319;52.944;5.928;2024-03-23T09:31:01;10.20;95.10
53422;DHT22;39319;52.944;5.928;2024-03-23T09:33:27;10.40;95.30
53422;DHT22;39319;52.944;5.928;2024-03-23T09:35:55;10.40;95.70
53422;DHT22;39319;52.944;5.928;2024-03-23T09:38:22;10.40;95.00
53422;DHT22;39319;52.944;5.928;2024-03-23T09:40:50;10.30;94.50
53422;DHT22;39319;52.944;5.928;2024-03-23T09:43:19;10.30;94.10
53422;DHT22;39319;52.944;5.928;2024-03-23T09:45:45;10.40;93.90
53422;DHT22;39319;52.944;5.928;2024-03-23T09:48:12;11.20;93.70
53422;DHT22;39319;52.944;5.928;2024-03-23T09:50:42;10.60;93.70
53422;DHT22;39319;52.944;5.928;2024-03-23T09:53:12;10.60;93.80
53422;DHT22;39319;52.944;5.928;2024-03-23T09:55:42;10.40;94.50
53422;DHT22;39319;52.944;5.928;2024-03-23T09:58:12;10.30;94.40
53422;DHT22;39319;52.944;5.928;2024-03-23T10:00:38;10.30;95.10
53422;DHT22;39319;52.944;5.928;2024-03-23T10:03:05;10.20;95.20
53422;DHT22;39319;52.944;5.928;2024-03-23T10:05:32;10.10;95.20
53422;DHT22;39319;52.944;5.928;2024-03-23T10:10:43;9.80;94.40
53422;DHT22;39319;52.944;5.928;2024-03-23T10:13:09;9.50;94.60
53422;DHT22;39319;52.944;5.928;2024-03-23T10:15:36;8.80;95.20
53422;DHT22;39319;52.944;5.928;2024-03-23T10:20:43;8.60;95.60
53422;DHT22;39319;52.944;5.928;2024-03-23T10:23:17;8.50;95.20
53422;DHT22;39319;52.944;5.928;2024-03-23T10:25:43;8.30;95.60
53422;DHT22;39319;52.944;5.928;2024-03-23T10:28:09;8.40;96.20
53422;DHT22;39319;52.944;5.928;2024-03-23T10:30:37;8.50;97.00
53422;DHT22;39319;52.944;5.928;2024-03-23T10:33:11;8.70;96.80
53422;DHT22;39319;52.944;5.928;2024-03-23T10:35:38;9.10;96.80
53422;DHT22;39319;52.944;5.928;2024-03-23T10:38:08;9.30;96.80
53422;DHT22;39319;52.944;5.928;2024-03-23T10:40:37;9.90;95.40
53422;DHT22;39319;52.944;5.928;2024-03-23T10:43:03;9.40;95.10
53422;DHT22;39319;52.944;5.928;2024-03-23T10:45:29;9.40;95.50
53422;DHT22;39319;52.944;5.928;2024-03-23T10:47:55;9.40;95.80
53422;DHT22;39319;52.944;5.928;2024-03-23T10:50:22;9.40;96.10
53422;DHT22;39319;52.944;5.928;2024-03-23T10:52:49;9.40;95.80
53422;DHT22;39319;52.944;5.928;2024-03-23T10:55:17;9.40;95.60
53422;DHT22;39319;52.944;5.928;2024-03-23T10:57:54;9.30;95.60
53422;DHT22;39319;52.944;5.928;2024-03-23T11:00:21;9.40;95.80
53422;DHT22;39319;52.944;5.928;2024-03-23T11:02:48;9.60;96.30
53422;DHT22;39319;52.944;5.928;2024-03-23T11:07:53;10.50;96.20
53422;DHT22;39319;52.944;5.928;2024-03-23T11:10:29;11.00;96.50
53422;DHT22;39319;52.944;5.928;2024-03-23T11:12:56;11.40;94.80
53422;DHT22;39319;52.944;5.928;2024-03-23T11:15:22;11.70;94.40
53422;DHT22;39319;52.944;5.928;2024-03-23T11:18:05;12.10;94.10
53422;DHT22;39319;52.944;5.928;2024-03-23T11:20:35;11.90;93.60
53422;DHT22;39319;52.944;5.928;2024-03-23T11:23:01;11.30;92.40
53422;DHT22;39319;52.944;5.928;2024-03-23T11:25:28;10.80;93.20
53422;DHT22;39319;52.944;5.928;2024-03-23T11:28:10;10.50;93.80
53422;DHT22;39319;52.944;5.928;2024-03-23T11:30:36;10.30;94.20
53422;DHT22;39319;52.944;5.928;2024-03-23T11:33:05;10.00;93.90
53422;DHT22;39319;52.944;5.928;2024-03-23T11:35:38;9.70;94.70
53422;DHT22;39319;52.944;5.928;2024-03-23T11:38:12;9.70;95.40
53422;DHT22;39319;52.944;5.928;2024-03-23T11:40:43;9.40;95.70
53422;DHT22;39319;52.944;5.928;2024-03-23T11:43:15;9.70;96.40
53422;DHT22;39319;52.944;5.928;2024-03-23T11:48:14;9.30;96.40
53422;DHT22;39319;52.944;5.928;2024-03-23T11:50:51;9.30;96.60
53422;DHT22;39319;52.944;5.928;2024-03-23T11:53:23;9.40;97.00
53422;DHT22;39319;52.944;5.928;2024-03-23T11:55:51;9.30;97.40
53422;DHT22;39319;52.944;5.928;2024-03-23T11:58:18;9.60;97.60
53422;DHT22;39319;52.944;5.928;2024-03-23T12:03:23;10.20;97.40
53422;DHT22;39319;52.944;5.928;2024-03-23T12:05:55;10.30;97.00
53422;DHT22;39319;52.944;5.928;2024-03-23T12:11:05;10.50;96.90
53422;DHT22;39319;52.944;5.928;2024-03-23T12:13:32;10.90;98.10
53422;DHT22;39319;52.944;5.928;2024-03-23T12:18:37;11.40;95.00
53422;DHT22;39319;52.944;5.928;2024-03-23T12:21:04;11.70;94.60
53422;DHT22;39319;52.944;5.928;2024-03-23T12:23:29;12.00;94.10
53422;DHT22;39319;52.944;5.928;2024-03-23T12:25:55;12.40;94.40
53422;DHT22;39319;52.944;5.928;2024-03-23T12:28:23;12.60;93.10
53422;DHT22;39319;52.944;5.928;2024-03-23T12:30:49;12.70;92.30
53422;DHT22;39319;52.944;5.928;2024-03-23T12:33:14;12.70;92.60
53422;DHT22;39319;52.944;5.928;2024-03-23T12:35:40;12.60;91.70
53422;DHT22;39319;52.944;5.928;2024-03-23T12:38:06;12.50;92.50
53422;DHT22;39319;52.944;5.928;2024-03-23T12:40:31;12.70;92.90
53422;DHT22;39319;52.944;5.928;2024-03-23T12:42:57;13.10;91.80
53422;DHT22;39319;52.944;5.928;2024-03-23T12:45:23;13.40;92.30
53422;DHT22;39319;52.944;5.928;2024-03-23T12:47:48;13.40;92.00
53422;DHT22;39319;52.944;5.928;2024-03-23T12:50:14;13.50;91.40
53422;DHT22;39319;52.944;5.928;2024-03-23T12:52:40;13.60;90.50
53422;DHT22;39319;52.944;5.928;2024-03-23T12:55:06;13.40;89.50
53422;DHT22;39319;52.944;5.928;2024-03-23T12:57:32;13.10;88.90
53422;DHT22;39319;52.944;5.928;2024-03-23T12:59:58;12.80;89.80
53422;DHT22;39319;52.944;5.928;2024-03-23T13:02:24;12.40;90.70
53422;DHT22;39319;52.944;5.928;2024-03-23T13:04:53;12.40;91.00
53422;DHT22;39319;52.944;5.928;2024-03-23T13:07:20;12.60;91.60
53422;DHT22;39319;52.944;5.928;2024-03-23T13:09:46;12.50;91.70
53422;DHT22;39319;52.944;5.928;2024-03-23T13:12:12;12.30;92.40
53422;DHT22;39319;52.944;5.928;2024-03-23T13:14:38;12.40;92.90
53422;DHT22;39319;52.944;5.928;2024-03-23T13:17:04;12.50;92.10
53422;DHT22;39319;52.944;5.928;2024-03-23T13:19:30;12.40;91.90
53422;DHT22;39319;52.944;5.928;2024-03-23T13:22:02;12.50;92.70
53422;DHT22;39319;52.944;5.928;2024-03-23T13:24:29;12.60;92.60
53422;DHT22;39319;52.944;5.928;2024-03-23T13:26:55;12.60;91.50
53422;DHT22;39319;52.944;5.928;2024-03-23T13:29:21;12.80;91.10
53422;DHT22;39319;52.944;5.928;2024-03-23T13:31:48;12.70;89.70
53422;DHT22;39319;52.944;5.928;2024-03-23T13:34:14;12.90;89.80
53422;DHT22;39319;52.944;5.928;2024-03-23T13:36:47;12.70;89.20
53422;DHT22;39319;52.944;5.928;2024-03-23T13:39:14;12.40;88.40
53422;DHT22;39319;52.944;5.928;2024-03-23T13:41:41;12.30;90.10
53422;DHT22;39319;52.944;5.928;2024-03-23T13:44:08;12.30;90.10
53422;DHT22;39319;52.944;5.928;2024-03-23T13:46:36;12.60;90.20
53422;DHT22;39319;52.944;5.928;2024-03-23T13:49:02;12.80;90.90
53422;DHT22;39319;52.944;5.928;2024-03-23T13:51:28;13.00;90.40
53422;DHT22;39319;52.944;5.928;2024-03-23T13:53:54;13.10;90.10
53422;DHT22;39319;52.944;5.928;2024-03-23T13:56:24;13.30;90.90
53422;DHT22;39319;52.944;5.928;2024-03-23T13:58:52;13.40;90.10
53422;DHT22;39319;52.944;5.928;2024-03-23T14:01:18;13.30;90.00
53422;DHT22;39319;52.944;5.928;2024-03-23T14:03:44;13.10;88.00
53422;DHT22;39319;52.944;5.928;2024-03-23T14:06:10;13.30;86.80
53422;DHT22;39319;52.944;5.928;2024-03-23T14:08:37;12.40;88.60
53422;DHT22;39319;52.944;5.928;2024-03-23T14:11:08;12.20;90.10
53422;DHT22;39319;52.944;5.928;2024-03-23T14:13:37;12.10;90.90
53422;DHT22;39319;52.944;5.928;2024-03-23T14:16:03;12.30;91.50
53422;DHT22;39319;52.944;5.928;2024-03-23T14:18:29;12.50;91.80
53422;DHT22;39319;52.944;5.928;2024-03-23T14:20:59;12.70;91.50
53422;DHT22;39319;52.944;5.928;2024-03-23T14:23:26;13.10;91.20
53422;DHT22;39319;52.944;5.928;2024-03-23T14:25:57;13.40;89.90
53422;DHT22;39319;52.944;5.928;2024-03-23T14:28:23;13.60;89.20
53422;DHT22;39319;52.944;5.928;2024-03-23T14:30:55;13.60;89.90
53422;DHT22;39319;52.944;5.928;2024-03-23T14:33:21;13.70;90.00
53422;DHT22;39319;52.944;5.928;2024-03-23T14:35:54;13.90;88.00
53422;DHT22;39319;52.944;5.928;2024-03-23T14:38:21;13.90;86.50
53422;DHT22;39319;52.944;5.928;2024-03-23T14:40:47;14.00;87.20
53422;DHT22;39319;52.944;5.928;2024-03-23T14:43:12;14.20;85.60
53422;DHT22;39319;52.944;5.928;2024-03-23T14:46:10;14.10;84.60
53422;DHT22;39319;52.944;5.928;2024-03-23T14:48:36;13.80;86.00
53422;DHT22;39319;52.944;5.928;2024-03-23T14:51:03;13.60;85.70
53422;DHT22;39319;52.944;5.928;2024-03-23T14:53:33;13.30;87.60
53422;DHT22;39319;52.944;5.928;2024-03-23T14:56:02;13.10;87.50
53422;DHT22;39319;52.944;5.928;2024-03-23T14:58:29;12.80;89.80
53422;DHT22;39319;52.944;5.928;2024-03-23T15:01:10;12.40;90.40
53422;DHT22;39319;52.944;5.928;2024-03-23T15:03:39;12.30;91.80
53422;DHT22;39319;52.944;5.928;2024-03-23T15:06:06;12.60;92.00
53422;DHT22;39319;52.944;5.928;2024-03-23T15:08:31;12.80;91.50
53422;DHT22;39319;52.944;5.928;2024-03-23T15:11:01;13.20;90.10
53422;DHT22;39319;52.944;5.928;2024-03-23T15:13:32;13.40;90.00
53422;DHT22;39319;52.944;5.928;2024-03-23T15:15:58;13.70;88.30
53422;DHT22;39319;52.944;5.928;2024-03-23T15:18:24;13.90;87.40
53422;DHT22;39319;52.944;5.928;2024-03-23T15:20:57;14.10;86.90
53422;DHT22;39319;52.944;5.928;2024-03-23T15:23:27;14.00;85.20
53422;DHT22;39319;52.944;5.928;2024-03-23T15:25:57;13.60;86.20
53422;DHT22;39319;52.944;5.928;2024-03-23T15:28:23;13.30;86.60
53422;DHT22;39319;52.944;5.928;2024-03-23T15:30:49;12.90;88.20
53422;DHT22;39319;52.944;5.928;2024-03-23T15:33:15;12.70;90.20
53422;DHT22;39319;52.944;5.928;2024-03-23T15:35:41;12.50;90.10
53422;DHT22;39319;52.944;5.928;2024-03-23T15:38:06;12.40;89.00
53422;DHT22;39319;52.944;5.928;2024-03-23T15:40:32;12.10;90.10
53422;DHT22;39319;52.944;5.928;2024-03-23T15:42:58;12.00;90.10
53422;DHT22;39319;52.944;5.928;2024-03-23T15:45:23;11.90;89.70
53422;DHT22;39319;52.944;5.928;2024-03-23T15:47:49;12.10;90.20
53422;DHT22;39319;52.944;5.928;2024-03-23T15:50:15;11.80;90.50
53422;DHT22;39319;52.944;5.928;2024-03-23T15:52:40;11.70;90.20
53422;DHT22;39319;52.944;5.928;2024-03-23T15:55:06;11.70;90.20
53422;DHT22;39319;52.944;5.928;2024-03-23T15:57:34;11.60;91.10
53422;DHT22;39319;52.944;5.928;2024-03-23T16:00:00;11.70;91.00
53422;DHT22;39319;52.944;5.928;2024-03-23T16:02:26;11.70;91.00
53422;DHT22;39319;52.944;5.928;2024-03-23T16:04:53;11.60;90.60
53422;DHT22;39319;52.944;5.928;2024-03-23T16:07:23;11.60;90.90
53422;DHT22;39319;52.944;5.928;2024-03-23T16:09:51;11.50;90.60
53422;DHT22;39319;52.944;5.928;2024-03-23T16:12:17;11.50;90.80
53422;DHT22;39319;52.944;5.928;2024-03-23T16:14:42;11.40;91.10
53422;DHT22;39319;52.944;5.928;2024-03-23T16:17:08;11.30;92.20
53422;DHT22;39319;52.944;5.928;2024-03-23T16:19:34;11.20;92.40
53422;DHT22;39319;52.944;5.928;2024-03-23T16:21:59;11.10;93.20
53422;DHT22;39319;52.944;5.928;2024-03-23T16:24:25;10.90;93.70
53422;DHT22;39319;52.944;5.928;2024-03-23T16:26:51;11.00;93.50
53422;DHT22;39319;52.944;5.928;2024-03-23T16:29:17;10.90;93.20
53422;DHT22;39319;52.944;5.928;2024-03-23T16:31:42;10.90;93.40
53422;DHT22;39319;52.944;5.928;2024-03-23T16:34:08;10.80;92.70
53422;DHT22;39319;52.944;5.928;2024-03-23T16:36:34;10.80;92.00
53422;DHT22;39319;52.944;5.928;2024-03-23T16:38:59;10.60;91.90
53422;DHT22;39319;52.944;5.928;2024-03-23T16:41:25;10.60;91.40
53422;DHT22;39319;52.944;5.928;2024-03-23T16:43:52;10.50;91.30
53422;DHT22;39319;52.944;5.928;2024-03-23T16:46:20;10.40;91.50
53422;DHT22;39319;52.944;5.928;2024-03-23T16:48:46;10.30;91.90
53422;DHT22;39319;52.944;5.928;2024-03-23T16:51:12;10.40;92.00
53422;DHT22;39319;52.944;5.928;2024-03-23T16:53:39;10.30;92.20
53422;DHT22;39319;52.944;5.928;2024-03-23T16:56:07;10.30;92.40